createdAt,value
2022-11-23T00:01:24.772Z,12.75
2022-11-23T00:04:29.079Z,12.62
2022-11-23T00:07:32.540Z,12.63
2022-11-23T00:10:35.219Z,12.80
2022-11-23T00:13:40.874Z,12.59
2022-11-23T00:16:43.959Z,12.37
2022-11-23T00:19:46.062Z,12.55
2022-11-23T00:22:48.177Z,12.52
2022-11-23T00:25:50.649Z,12.58
2022-11-23T00:28:53.070Z,12.60
2022-11-23T00:31:58.297Z,12.45
2022-11-23T00:35:00.398Z,12.73
2022-11-23T00:38:02.461Z,12.66
2022-11-23T00:41:08.675Z,12.80
2022-11-23T00:44:11.110Z,12.56
2022-11-23T00:50:34.959Z,12.55
2022-11-23T00:53:37.362Z,12.76
2022-11-23T00:56:40.341Z,12.68
2022-11-23T00:59:42.781Z,12.84
2022-11-23T01:02:45.792Z,12.89
2022-11-23T01:05:48.172Z,12.87
2022-11-23T01:08:53.015Z,12.92
2022-11-23T01:11:55.432Z,13.00
2022-11-23T01:14:59.110Z,13.07
2022-11-23T01:18:01.398Z,12.72
2022-11-23T01:21:07.224Z,12.63
2022-11-23T01:24:14.049Z,12.61
2022-11-23T01:27:16.519Z,12.60
2022-11-23T01:30:18.723Z,12.53
2022-11-23T01:33:20.824Z,12.67
2022-11-23T01:36:25.973Z,12.85
2022-11-23T01:39:28.271Z,12.78
2022-11-23T01:42:53.249Z,12.91
2022-11-23T01:46:00.130Z,12.86
2022-11-23T01:49:07.328Z,12.75
2022-11-23T01:52:17.635Z,12.66
2022-11-23T01:55:20.928Z,12.85
2022-11-23T01:58:26.686Z,12.78
2022-11-23T02:01:29.205Z,12.25
2022-11-23T02:04:42.914Z,12.48
2022-11-23T02:07:50.295Z,12.54
2022-11-23T02:10:55.268Z,12.64
2022-11-23T02:14:00.527Z,12.66
2022-11-23T02:17:05.313Z,12.36
2022-11-23T02:20:09.883Z,12.54
2022-11-23T02:23:46.737Z,12.34
2022-11-23T02:26:49.764Z,12.55
2022-11-23T02:29:53.654Z,12.53
2022-11-23T02:32:56.441Z,12.45
2022-11-23T02:36:01.563Z,12.57
2022-11-23T02:39:17.071Z,12.36
2022-11-23T02:42:20.754Z,12.61
2022-11-23T02:45:31.797Z,12.64
2022-11-23T02:48:36.382Z,12.51
2022-11-23T02:51:39.146Z,12.63
2022-11-23T02:54:41.700Z,12.49
2022-11-23T02:57:43.902Z,12.40
2022-11-23T03:00:47.093Z,12.13
2022-11-23T03:03:54.045Z,12.19
2022-11-23T03:06:57.537Z,12.36
2022-11-23T03:09:59.985Z,12.39
2022-11-23T03:13:02.150Z,12.23
2022-11-23T03:16:08.808Z,12.49
2022-11-23T03:19:11.083Z,12.20
2022-11-23T03:22:13.744Z,12.39
2022-11-23T03:25:15.885Z,12.71
2022-11-23T03:28:22.282Z,12.66
2022-11-23T03:31:26.783Z,12.79
2022-11-23T03:34:29.577Z,12.77
2022-11-23T03:37:33.061Z,12.83
2022-11-23T03:40:35.304Z,12.59
2022-11-23T03:43:51.358Z,12.76
2022-11-23T03:46:53.650Z,12.41
2022-11-23T03:49:56.186Z,12.54
2022-11-23T03:52:59.997Z,12.63
2022-11-23T03:56:05.109Z,12.44
2022-11-23T03:59:10.991Z,12.58
2022-11-23T04:02:14.616Z,12.50
2022-11-23T04:05:26.253Z,12.50
2022-11-23T04:08:47.389Z,12.65
2022-11-23T04:12:01.398Z,12.64
2022-11-23T04:15:06.140Z,12.52
2022-11-23T04:18:08.579Z,12.67
2022-11-23T04:21:13.092Z,12.50
2022-11-23T04:24:15.550Z,12.80
2022-11-23T04:27:19.721Z,12.69
2022-11-23T04:30:21.851Z,12.83
2022-11-23T04:33:23.944Z,13.14
2022-11-23T04:36:29.756Z,13.32
2022-11-23T04:39:32.373Z,13.35
2022-11-23T04:42:54.575Z,13.30
2022-11-23T04:46:02.940Z,13.56
2022-11-23T04:49:06.310Z,14.00
2022-11-23T04:52:08.528Z,13.74
2022-11-23T04:55:17.445Z,13.74
2022-11-23T04:58:31.587Z,13.76
2022-11-23T05:01:36.646Z,13.55
2022-11-23T05:05:00.438Z,13.63
2022-11-23T05:08:07.057Z,13.50
2022-11-23T05:11:29.763Z,13.49
2022-11-23T05:14:35.552Z,13.44
2022-11-23T05:17:38.730Z,13.50
2022-11-23T05:20:46.303Z,13.51
2022-11-23T05:23:50.140Z,13.53
2022-11-23T05:26:56.406Z,13.77
2022-11-23T05:30:01.688Z,14.59
2022-11-23T05:33:08.765Z,15.74
2022-11-23T05:36:16.014Z,15.93
2022-11-23T05:39:18.227Z,16.01
2022-11-23T05:42:25.353Z,16.30
2022-11-23T05:45:30.807Z,16.86
2022-11-23T05:48:33.586Z,17.23
2022-11-23T05:51:42.921Z,17.38
2022-11-23T05:54:46.211Z,17.04
2022-11-23T05:57:50.672Z,17.41
2022-11-23T06:00:58.296Z,17.43
2022-11-23T06:04:05.411Z,17.68
2022-11-23T06:07:12.210Z,17.58
2022-11-23T06:10:38.821Z,17.84
2022-11-23T06:13:42.136Z,17.70
2022-11-23T06:16:45.839Z,18.21
2022-11-23T06:20:14.322Z,17.74
2022-11-23T06:23:20.324Z,17.85
2022-11-23T06:26:24.782Z,17.62
2022-11-23T06:29:28.392Z,17.66
2022-11-23T06:32:32.938Z,17.40
2022-11-23T06:35:35.670Z,17.47
2022-11-23T06:38:38.056Z,17.38
2022-11-23T06:41:46.680Z,17.29
2022-11-23T06:44:49.723Z,17.16
2022-11-23T06:48:04.769Z,17.85
2022-11-23T06:51:17.692Z,18.84
2022-11-23T06:54:27.216Z,19.43
2022-11-23T06:57:30.520Z,19.41
2022-11-23T07:00:35.468Z,18.79
2022-11-23T07:03:39.267Z,18.37
2022-11-23T07:06:51.828Z,18.88
2022-11-23T07:10:21.285Z,18.98
2022-11-23T07:13:38.344Z,18.74
2022-11-23T07:16:40.599Z,18.84
2022-11-23T07:19:43.370Z,19.22
2022-11-23T07:22:45.645Z,19.29
2022-11-23T07:25:47.813Z,18.94
2022-11-23T07:28:49.932Z,19.10
2022-11-23T07:31:53.663Z,19.23
2022-11-23T07:34:59.687Z,19.42
2022-11-23T07:38:04.313Z,19.01
2022-11-23T07:41:06.559Z,19.29
2022-11-23T07:44:25.362Z,19.46
2022-11-23T07:47:27.338Z,19.00
2022-11-23T07:50:29.669Z,18.79
2022-11-23T07:53:31.751Z,18.88
2022-11-23T07:56:34.434Z,18.88
2022-11-23T07:59:36.626Z,18.44
2022-11-23T08:02:52.851Z,18.33
2022-11-23T08:06:01.471Z,18.23
2022-11-23T08:09:03.578Z,18.41
2022-11-23T08:12:06.713Z,17.83
2022-11-23T08:15:09.263Z,17.71
2022-11-23T08:18:11.251Z,17.74
2022-11-23T08:21:13.345Z,17.89
2022-11-23T08:24:15.309Z,17.69
2022-11-23T08:27:17.658Z,17.79
2022-11-23T08:30:19.759Z,17.75
2022-11-23T08:33:21.745Z,17.59
2022-11-23T08:36:24.072Z,17.63
2022-11-23T08:39:26.503Z,17.74
2022-11-23T08:42:30.813Z,17.34
2022-11-23T08:45:32.934Z,17.56
2022-11-23T08:48:35.084Z,17.59
2022-11-23T08:51:37.278Z,17.47
2022-11-23T08:54:39.436Z,17.46
2022-11-23T08:57:41.533Z,17.59
2022-11-23T09:00:43.713Z,17.59
2022-11-23T09:03:45.913Z,17.40
2022-11-23T09:06:48.027Z,17.28
2022-11-23T09:09:50.126Z,17.30
2022-11-23T09:12:52.294Z,17.26
2022-11-23T09:15:58.918Z,17.13
2022-11-23T09:19:00.933Z,17.01
2022-11-23T09:22:03.517Z,17.21
2022-11-23T09:25:07.139Z,17.02
2022-11-23T09:28:09.399Z,17.03
2022-11-23T09:31:11.413Z,17.05
2022-11-23T09:34:14.402Z,17.20
2022-11-23T09:37:16.549Z,17.06
2022-11-23T09:40:18.911Z,16.79
2022-11-23T09:43:32.528Z,16.93
2022-11-23T09:46:43.383Z,16.98
2022-11-23T09:50:06.482Z,17.32
2022-11-23T09:53:15.658Z,17.28
2022-11-23T09:56:27.512Z,17.27
2022-11-23T09:59:44.062Z,17.27
2022-11-23T10:02:47.510Z,17.07
2022-11-23T10:06:01.566Z,16.97
2022-11-23T10:09:09.020Z,17.02
2022-11-23T10:12:22.391Z,17.11
2022-11-23T10:15:33.931Z,16.81
2022-11-23T10:34:50.936Z,16.57
2022-11-23T10:38:20.009Z,16.32
2022-11-23T10:41:23.069Z,16.25
2022-11-23T10:44:34.851Z,16.38
2022-11-23T10:47:59.577Z,16.52
2022-11-23T10:51:29.083Z,16.49
2022-11-23T10:54:48.452Z,16.37
2022-11-23T10:57:53.292Z,16.27
2022-11-23T11:01:03.087Z,16.17
2022-11-23T11:04:22.341Z,15.82
2022-11-23T11:07:30.087Z,15.72
2022-11-23T11:10:43.180Z,15.88
2022-11-23T11:13:50.420Z,15.92
2022-11-23T11:16:55.426Z,15.80
2022-11-23T11:19:57.763Z,15.41
2022-11-23T11:23:05.286Z,15.29
2022-11-23T11:26:19.997Z,15.36
2022-11-23T11:29:51.073Z,15.30
2022-11-23T11:33:21.477Z,14.99
2022-11-23T11:36:28.291Z,14.96
2022-11-23T11:39:59.248Z,14.98
2022-11-23T11:43:19.705Z,15.03
2022-11-23T11:46:32.209Z,15.13
2022-11-23T11:49:42.819Z,15.14
2022-11-23T11:52:46.990Z,15.19
2022-11-23T11:55:57.697Z,15.26
2022-11-23T11:59:26.130Z,15.33
2022-11-23T12:02:55.913Z,15.39
2022-11-23T12:06:08.775Z,15.18
2022-11-23T12:09:19.104Z,15.04
2022-11-23T12:12:32.308Z,15.04
2022-11-23T12:15:49.424Z,14.99
2022-11-23T12:19:14.898Z,15.11
2022-11-23T12:22:35.583Z,15.08
2022-11-23T12:25:42.127Z,15.02
2022-11-23T12:28:49.966Z,15.02
2022-11-23T12:32:02.360Z,15.13
2022-11-23T12:35:42.588Z,15.16
2022-11-23T12:39:05.269Z,15.13
2022-11-23T12:42:10.319Z,15.16
2022-11-23T12:45:17.943Z,15.11
2022-11-23T12:48:46.680Z,15.15
2022-11-23T12:52:05.271Z,15.18
2022-11-23T12:55:33.277Z,15.24
2022-11-23T12:58:38.716Z,15.16
2022-11-23T13:01:49.845Z,15.16
2022-11-23T13:05:08.205Z,15.11
2022-11-23T13:08:12.848Z,15.07
2022-11-23T13:11:26.762Z,14.97
2022-11-23T13:14:40.644Z,15.15
2022-11-23T13:18:07.392Z,15.19
2022-11-23T13:21:20.626Z,15.50
2022-11-23T13:24:25.397Z,15.71
2022-11-23T13:27:31.943Z,15.55
2022-11-23T13:31:13.286Z,15.36
2022-11-23T13:34:44.856Z,15.29
2022-11-23T13:38:03.128Z,15.15
2022-11-23T13:41:34.181Z,15.17
2022-11-23T13:44:37.677Z,15.04
2022-11-23T13:47:43.629Z,14.96
2022-11-23T13:50:49.048Z,15.13
2022-11-23T13:53:57.711Z,15.09
2022-11-23T13:57:03.950Z,15.02
2022-11-23T14:00:53.194Z,15.06
2022-11-23T14:04:00.537Z,15.11
2022-11-23T14:07:13.099Z,15.06
2022-11-23T14:10:24.483Z,14.96
2022-11-23T14:13:33.283Z,15.02
2022-11-23T14:16:57.529Z,15.14
2022-11-23T14:20:07.990Z,14.96
2022-11-23T14:23:40.559Z,15.05
2022-11-23T14:27:39.091Z,15.00
2022-11-23T14:30:44.707Z,15.02
2022-11-23T14:33:54.443Z,14.93
2022-11-23T14:37:40.743Z,14.98
2022-11-23T14:41:04.757Z,14.85
2022-11-23T14:44:21.568Z,14.72
2022-11-23T14:47:42.688Z,14.67
2022-11-23T14:50:56.274Z,14.57
2022-11-23T14:54:01.701Z,14.57
2022-11-23T14:57:05.060Z,14.62
2022-11-23T15:00:11.830Z,14.61
2022-11-23T15:03:49.573Z,14.70
2022-11-23T15:07:35.848Z,14.69
2022-11-23T15:20:12.437Z,14.76
2022-11-23T15:23:23.250Z,14.82
2022-11-23T15:30:01.199Z,14.80
2022-11-23T15:33:09.913Z,14.75
2022-11-23T15:36:13.583Z,14.67
2022-11-23T15:39:19.275Z,14.64
2022-11-23T15:42:26.604Z,14.70
2022-11-23T15:46:01.251Z,14.65
2022-11-23T15:49:06.341Z,14.67
2022-11-23T15:52:15.655Z,14.49
2022-11-23T15:55:22.650Z,14.46
2022-11-23T16:01:54.398Z,14.34
2022-11-23T16:05:16.441Z,14.38
2022-11-23T16:08:32.640Z,14.20
2022-11-23T16:15:40.672Z,14.37
2022-11-23T16:18:48.853Z,14.32
2022-11-23T16:22:01.955Z,14.21
2022-11-23T16:25:28.865Z,14.26
2022-11-23T16:28:33.293Z,14.33
2022-11-23T16:31:40.600Z,14.20
2022-11-23T16:34:46.125Z,14.26
2022-11-23T16:37:49.946Z,14.31
2022-11-23T16:40:53.444Z,14.29
2022-11-23T16:43:55.508Z,14.18
2022-11-23T16:47:22.211Z,14.33
2022-11-23T16:50:24.939Z,14.36
2022-11-23T16:53:30.255Z,14.21
2022-11-23T16:56:33.097Z,14.10
2022-11-23T16:59:39.184Z,14.06
2022-11-23T17:02:42.836Z,14.24
2022-11-23T17:05:45.911Z,14.32
2022-11-23T17:08:51.519Z,14.24
2022-11-23T17:11:59.622Z,14.34
2022-11-23T17:15:01.757Z,14.29
2022-11-23T17:18:05.513Z,14.37
2022-11-23T17:21:07.821Z,14.33
2022-11-23T17:24:11.291Z,14.37
2022-11-23T17:27:20.641Z,14.34
2022-11-23T17:30:23.667Z,14.26
2022-11-23T17:33:25.726Z,14.34
2022-11-23T17:36:30.509Z,14.37
2022-11-23T17:39:33.779Z,14.58
2022-11-23T17:42:36.892Z,14.86
2022-11-23T17:45:42.323Z,15.00
2022-11-23T17:48:55.521Z,15.26
2022-11-23T17:52:10.722Z,14.93
2022-11-23T18:04:59.364Z,15.05
2022-11-23T18:08:01.788Z,15.16
2022-11-23T18:11:04.011Z,14.86
2022-11-23T18:14:17.706Z,15.09
2022-11-23T18:17:22.541Z,14.95
2022-11-23T18:20:25.281Z,15.11
2022-11-23T18:23:42.229Z,15.00
2022-11-23T18:26:44.217Z,14.90
2022-11-23T18:30:24.842Z,15.32
2022-11-23T18:37:35.464Z,15.90
2022-11-23T18:40:59.187Z,16.31
2022-11-23T18:44:01.261Z,16.69
2022-11-23T18:47:03.754Z,17.90
2022-11-23T18:50:07.047Z,19.03
2022-11-23T18:53:09.178Z,18.89
2022-11-23T19:04:10.332Z,18.51
2022-11-23T19:12:50.989Z,18.62
2022-11-23T19:20:56.959Z,18.25
2022-11-23T19:32:31.428Z,18.34
2022-11-23T19:35:34.638Z,18.14
2022-11-23T20:17:16.913Z,16.31
2022-11-23T20:20:19.111Z,17.84
2022-11-23T20:23:22.482Z,19.26
2022-11-23T20:26:25.807Z,19.95
2022-11-23T20:29:28.111Z,20.04
2022-11-23T20:32:30.119Z,19.58
2022-11-23T20:35:32.229Z,18.78
2022-11-23T20:38:38.936Z,18.35
2022-11-23T20:41:52.826Z,18.84
2022-11-23T20:44:55.922Z,19.24
2022-11-23T20:53:41.432Z,16.24
2022-11-23T21:55:30.593Z,14.37
2022-11-23T22:43:23.266Z,14.00
2022-11-23T22:46:29.838Z,13.87
2022-11-23T22:49:31.969Z,13.81
2022-11-23T22:52:36.516Z,13.89
2022-11-23T22:55:39.798Z,14.02
2022-11-23T22:58:42.540Z,13.92
2022-11-23T23:01:44.914Z,13.96
2022-11-23T23:04:47.945Z,13.92
2022-11-23T23:07:50.967Z,13.83
2022-11-23T23:10:53.865Z,13.77
2022-11-23T23:13:59.810Z,13.93
2022-11-23T23:17:03.651Z,13.73
2022-11-23T23:20:06.468Z,13.65
2022-11-23T23:23:13.755Z,13.65
2022-11-23T23:26:17.963Z,13.60
2022-11-23T23:29:21.266Z,13.64
2022-11-23T23:32:23.360Z,13.67
2022-11-23T23:35:26.453Z,13.58
2022-11-23T23:38:30.033Z,13.64
2022-11-23T23:41:32.143Z,13.71
2022-11-23T23:44:36.051Z,13.67
2022-11-23T23:47:39.628Z,13.60
2022-11-23T23:50:44.017Z,13.26
2022-11-23T23:53:47.207Z,13.52
2022-11-23T23:56:51.365Z,13.53
2022-11-23T23:59:53.479Z,13.64
